sensor_id;sensor_type;location;lat;lon;timestamp;P1;durP1;ratioP1;P2;durP2;ratioP2
68234;SDS011;55052;52.056;5.296;2023-08-24T00:00:21;8.82;;;4.53;;
68234;SDS011;55052;52.056;5.296;2023-08-24T00:02:48;7.78;;;4.68;;
68234;SDS011;55052;52.056;5.296;2023-08-24T00:05:15;12.48;;;5.18;;
68234;SDS011;55052;52.056;5.296;2023-08-24T00:07:42;8.40;;;4.80;;
68234;SDS011;55052;52.056;5.296;2023-08-24T00:10:10;9.73;;;4.30;;
68234;SDS011;55052;52.056;5.296;2023-08-24T00:12:37;8.18;;;4.30;;
68234;SDS011;55052;52.056;5.296;2023-08-24T00:15:04;9.45;;;4.50;;
68234;SDS011;55052;52.056;5.296;2023-08-24T00:17:34;7.18;;;4.13;;
68234;SDS011;55052;52.056;5.296;2023-08-24T00:20:01;8.13;;;4.50;;
68234;SDS011;55052;52.056;5.296;2023-08-24T00:22:30;9.23;;;4.80;;
68234;SDS011;55052;52.056;5.296;2023-08-24T00:24:57;7.93;;;4.53;;
68234;SDS011;55052;52.056;5.296;2023-08-24T00:27:24;9.13;;;4.80;;
68234;SDS011;55052;52.056;5.296;2023-08-24T00:29:51;10.57;;;5.32;;
68234;SDS011;55052;52.056;5.296;2023-08-24T00:32:18;10.07;;;5.22;;
68234;SDS011;55052;52.056;5.296;2023-08-24T00:34:45;8.57;;;5.18;;
68234;SDS011;55052;52.056;5.296;2023-08-24T00:37:12;10.35;;;5.35;;
68234;SDS011;55052;52.056;5.296;2023-08-24T00:39:38;10.10;;;5.40;;
68234;SDS011;55052;52.056;5.296;2023-08-24T00:42:05;8.52;;;5.25;;
68234;SDS011;55052;52.056;5.296;2023-08-24T00:44:32;9.18;;;5.53;;
68234;SDS011;55052;52.056;5.296;2023-08-24T00:47:00;8.75;;;5.55;;
68234;SDS011;55052;52.056;5.296;2023-08-24T00:49:27;8.15;;;5.25;;
68234;SDS011;55052;52.056;5.296;2023-08-24T00:51:54;8.07;;;4.88;;
68234;SDS011;55052;52.056;5.296;2023-08-24T00:54:21;9.05;;;5.57;;
68234;SDS011;55052;52.056;5.296;2023-08-24T00:56:47;8.82;;;5.22;;
68234;SDS011;55052;52.056;5.296;2023-08-24T00:59:15;10.63;;;4.97;;
68234;SDS011;55052;52.056;5.296;2023-08-24T01:01:41;10.02;;;5.45;;
68234;SDS011;55052;52.056;5.296;2023-08-24T01:04:13;9.13;;;5.25;;
68234;SDS011;55052;52.056;5.296;2023-08-24T01:06:39;8.13;;;4.80;;
68234;SDS011;55052;52.056;5.296;2023-08-24T01:09:06;7.65;;;4.82;;
68234;SDS011;55052;52.056;5.296;2023-08-24T01:17:09;8.07;;;5.20;;
68234;SDS011;55052;52.056;5.296;2023-08-24T01:19:41;7.53;;;4.85;;
68234;SDS011;55052;52.056;5.296;2023-08-24T01:27:38;9.93;;;4.75;;
68234;SDS011;55052;52.056;5.296;2023-08-24T01:30:06;9.82;;;5.13;;
68234;SDS011;55052;52.056;5.296;2023-08-24T01:32:34;8.15;;;5.07;;
68234;SDS011;55052;52.056;5.296;2023-08-24T01:35:02;9.68;;;4.93;;
68234;SDS011;55052;52.056;5.296;2023-08-24T01:37:32;8.65;;;5.22;;
68234;SDS011;55052;52.056;5.296;2023-08-24T01:40:02;8.52;;;5.40;;
68234;SDS011;55052;52.056;5.296;2023-08-24T01:42:47;9.75;;;5.43;;
68234;SDS011;55052;52.056;5.296;2023-08-24T01:45:22;10.27;;;6.03;;
68234;SDS011;55052;52.056;5.296;2023-08-24T01:47:53;9.02;;;5.25;;
68234;SDS011;55052;52.056;5.296;2023-08-24T01:50:22;10.25;;;5.35;;
68234;SDS011;55052;52.056;5.296;2023-08-24T01:52:49;10.68;;;5.47;;
68234;SDS011;55052;52.056;5.296;2023-08-24T01:55:19;9.90;;;5.20;;
68234;SDS011;55052;52.056;5.296;2023-08-24T01:57:47;9.95;;;5.75;;
68234;SDS011;55052;52.056;5.296;2023-08-24T02:00:15;9.48;;;5.50;;
68234;SDS011;55052;52.056;5.296;2023-08-24T02:02:42;9.13;;;5.13;;
68234;SDS011;55052;52.056;5.296;2023-08-24T02:05:10;11.10;;;6.03;;
68234;SDS011;55052;52.056;5.296;2023-08-24T02:07:38;8.15;;;5.30;;
68234;SDS011;55052;52.056;5.296;2023-08-24T02:10:05;7.68;;;5.47;;
68234;SDS011;55052;52.056;5.296;2023-08-24T02:12:32;12.35;;;5.47;;
68234;SDS011;55052;52.056;5.296;2023-08-24T02:14:59;9.43;;;5.15;;
68234;SDS011;55052;52.056;5.296;2023-08-24T02:17:26;10.05;;;5.03;;
68234;SDS011;55052;52.056;5.296;2023-08-24T02:19:53;13.55;;;5.20;;
68234;SDS011;55052;52.056;5.296;2023-08-24T02:22:21;10.25;;;5.70;;
68234;SDS011;55052;52.056;5.296;2023-08-24T02:24:47;8.07;;;5.28;;
68234;SDS011;55052;52.056;5.296;2023-08-24T02:27:14;10.85;;;5.50;;
68234;SDS011;55052;52.056;5.296;2023-08-24T02:29:41;7.50;;;4.85;;
68234;SDS011;55052;52.056;5.296;2023-08-24T02:32:08;9.80;;;5.15;;
68234;SDS011;55052;52.056;5.296;2023-08-24T02:34:35;6.93;;;5.30;;
68234;SDS011;55052;52.056;5.296;2023-08-24T02:37:01;9.38;;;5.65;;
68234;SDS011;55052;52.056;5.296;2023-08-24T02:39:28;8.60;;;5.28;;
68234;SDS011;55052;52.056;5.296;2023-08-24T02:41:55;9.57;;;5.65;;
68234;SDS011;55052;52.056;5.296;2023-08-24T02:44:22;11.02;;;5.45;;
68234;SDS011;55052;52.056;5.296;2023-08-24T02:46:48;8.93;;;5.45;;
68234;SDS011;55052;52.056;5.296;2023-08-24T02:49:15;10.27;;;6.38;;
68234;SDS011;55052;52.056;5.296;2023-08-24T02:51:42;11.77;;;6.00;;
68234;SDS011;55052;52.056;5.296;2023-08-24T02:54:09;10.27;;;6.57;;
68234;SDS011;55052;52.056;5.296;2023-08-24T02:56:39;11.07;;;6.72;;
68234;SDS011;55052;52.056;5.296;2023-08-24T02:59:05;14.75;;;7.20;;
68234;SDS011;55052;52.056;5.296;2023-08-24T03:01:32;13.25;;;6.90;;
68234;SDS011;55052;52.056;5.296;2023-08-24T03:03:59;12.13;;;7.30;;
68234;SDS011;55052;52.056;5.296;2023-08-24T03:06:26;12.32;;;7.35;;
68234;SDS011;55052;52.056;5.296;2023-08-24T03:08:53;14.07;;;7.10;;
68234;SDS011;55052;52.056;5.296;2023-08-24T03:11:19;14.65;;;7.25;;
68234;SDS011;55052;52.056;5.296;2023-08-24T03:13:46;13.93;;;7.45;;
68234;SDS011;55052;52.056;5.296;2023-08-24T03:16:13;12.45;;;7.25;;
68234;SDS011;55052;52.056;5.296;2023-08-24T03:18:40;12.00;;;7.38;;
68234;SDS011;55052;52.056;5.296;2023-08-24T03:21:07;12.18;;;7.28;;
68234;SDS011;55052;52.056;5.296;2023-08-24T03:23:33;12.27;;;7.45;;
68234;SDS011;55052;52.056;5.296;2023-08-24T03:26:00;12.80;;;8.18;;
68234;SDS011;55052;52.056;5.296;2023-08-24T03:28:27;12.65;;;8.10;;
68234;SDS011;55052;52.056;5.296;2023-08-24T03:30:54;12.20;;;7.53;;
68234;SDS011;55052;52.056;5.296;2023-08-24T03:33:22;12.32;;;8.02;;
68234;SDS011;55052;52.056;5.296;2023-08-24T03:35:48;14.70;;;8.27;;
68234;SDS011;55052;52.056;5.296;2023-08-24T03:38:15;13.85;;;7.72;;
68234;SDS011;55052;52.056;5.296;2023-08-24T03:40:42;13.50;;;8.00;;
68234;SDS011;55052;52.056;5.296;2023-08-24T03:43:09;12.23;;;7.78;;
68234;SDS011;55052;52.056;5.296;2023-08-24T03:45:36;12.63;;;7.05;;
68234;SDS011;55052;52.056;5.296;2023-08-24T03:48:04;12.77;;;7.78;;
68234;SDS011;55052;52.056;5.296;2023-08-24T03:50:31;12.05;;;7.78;;
68234;SDS011;55052;52.056;5.296;2023-08-24T03:52:57;11.93;;;7.30;;
68234;SDS011;55052;52.056;5.296;2023-08-24T03:55:24;12.43;;;7.25;;
68234;SDS011;55052;52.056;5.296;2023-08-24T03:57:51;11.45;;;7.13;;
68234;SDS011;55052;52.056;5.296;2023-08-24T04:00:19;12.45;;;7.55;;
68234;SDS011;55052;52.056;5.296;2023-08-24T04:02:46;11.57;;;7.18;;
68234;SDS011;55052;52.056;5.296;2023-08-24T04:05:13;13.48;;;7.75;;
68234;SDS011;55052;52.056;5.296;2023-08-24T04:07:39;12.73;;;7.85;;
68234;SDS011;55052;52.056;5.296;2023-08-24T04:10:07;13.73;;;7.50;;
68234;SDS011;55052;52.056;5.296;2023-08-24T04:12:35;12.45;;;7.47;;
68234;SDS011;55052;52.056;5.296;2023-08-24T04:15:02;11.82;;;7.10;;
68234;SDS011;55052;52.056;5.296;2023-08-24T04:17:29;13.98;;;7.97;;
68234;SDS011;55052;52.056;5.296;2023-08-24T04:19:56;12.05;;;7.47;;
68234;SDS011;55052;52.056;5.296;2023-08-24T04:22:23;15.23;;;7.50;;
68234;SDS011;55052;52.056;5.296;2023-08-24T04:24:50;13.52;;;8.35;;
68234;SDS011;55052;52.056;5.296;2023-08-24T04:27:17;12.25;;;7.45;;
68234;SDS011;55052;52.056;5.296;2023-08-24T04:29:43;12.48;;;7.47;;
68234;SDS011;55052;52.056;5.296;2023-08-24T04:32:10;15.02;;;8.15;;
68234;SDS011;55052;52.056;5.296;2023-08-24T04:34:37;10.95;;;7.28;;
68234;SDS011;55052;52.056;5.296;2023-08-24T04:37:05;10.68;;;7.72;;
68234;SDS011;55052;52.056;5.296;2023-08-24T04:39:33;10.23;;;7.35;;
68234;SDS011;55052;52.056;5.296;2023-08-24T04:42:00;12.32;;;7.38;;
68234;SDS011;55052;52.056;5.296;2023-08-24T04:44:26;10.65;;;7.40;;
68234;SDS011;55052;52.056;5.296;2023-08-24T04:46:53;11.02;;;7.20;;
68234;SDS011;55052;52.056;5.296;2023-08-24T04:49:20;10.77;;;7.18;;
68234;SDS011;55052;52.056;5.296;2023-08-24T04:51:47;11.95;;;7.32;;
68234;SDS011;55052;52.056;5.296;2023-08-24T04:54:13;10.55;;;7.25;;
68234;SDS011;55052;52.056;5.296;2023-08-24T04:56:40;14.48;;;8.02;;
68234;SDS011;55052;52.056;5.296;2023-08-24T04:59:07;11.40;;;7.88;;
68234;SDS011;55052;52.056;5.296;2023-08-24T05:01:34;12.40;;;8.27;;
68234;SDS011;55052;52.056;5.296;2023-08-24T05:04:01;12.65;;;7.78;;
68234;SDS011;55052;52.056;5.296;2023-08-24T05:06:28;10.60;;;7.13;;
68234;SDS011;55052;52.056;5.296;2023-08-24T05:08:55;13.30;;;8.98;;
68234;SDS011;55052;52.056;5.296;2023-08-24T05:11:22;10.50;;;7.05;;
68234;SDS011;55052;52.056;5.296;2023-08-24T05:13:52;11.35;;;7.20;;
68234;SDS011;55052;52.056;5.296;2023-08-24T05:16:19;13.63;;;8.27;;
68234;SDS011;55052;52.056;5.296;2023-08-24T05:18:46;11.95;;;8.80;;
68234;SDS011;55052;52.056;5.296;2023-08-24T05:21:13;12.77;;;7.65;;
68234;SDS011;55052;52.056;5.296;2023-08-24T05:23:40;14.90;;;8.68;;
68234;SDS011;55052;52.056;5.296;2023-08-24T05:26:06;13.20;;;8.48;;
68234;SDS011;55052;52.056;5.296;2023-08-24T05:28:33;14.27;;;8.32;;
68234;SDS011;55052;52.056;5.296;2023-08-24T05:31:00;13.98;;;8.23;;
68234;SDS011;55052;52.056;5.296;2023-08-24T05:33:27;17.92;;;8.38;;
68234;SDS011;55052;52.056;5.296;2023-08-24T05:35:57;10.93;;;8.02;;
68234;SDS011;55052;52.056;5.296;2023-08-24T05:38:24;11.98;;;8.00;;
68234;SDS011;55052;52.056;5.296;2023-08-24T05:40:51;14.57;;;8.40;;
68234;SDS011;55052;52.056;5.296;2023-08-24T05:43:18;12.75;;;8.18;;
68234;SDS011;55052;52.056;5.296;2023-08-24T05:45:46;12.60;;;8.38;;
68234;SDS011;55052;52.056;5.296;2023-08-24T05:48:13;12.77;;;7.95;;
68234;SDS011;55052;52.056;5.296;2023-08-24T05:50:44;13.15;;;7.70;;
68234;SDS011;55052;52.056;5.296;2023-08-24T05:53:14;14.18;;;7.85;;
68234;SDS011;55052;52.056;5.296;2023-08-24T05:55:40;13.25;;;7.90;;
68234;SDS011;55052;52.056;5.296;2023-08-24T05:58:08;12.25;;;8.20;;
68234;SDS011;55052;52.056;5.296;2023-08-24T06:00:35;12.60;;;8.48;;
68234;SDS011;55052;52.056;5.296;2023-08-24T06:03:02;12.05;;;8.20;;
68234;SDS011;55052;52.056;5.296;2023-08-24T06:05:30;14.07;;;8.55;;
68234;SDS011;55052;52.056;5.296;2023-08-24T06:07:57;15.48;;;8.80;;
68234;SDS011;55052;52.056;5.296;2023-08-24T06:10:25;14.88;;;8.48;;
68234;SDS011;55052;52.056;5.296;2023-08-24T06:12:53;14.88;;;8.00;;
68234;SDS011;55052;52.056;5.296;2023-08-24T06:15:20;14.40;;;8.30;;
68234;SDS011;55052;52.056;5.296;2023-08-24T06:17:50;14.30;;;8.10;;
68234;SDS011;55052;52.056;5.296;2023-08-24T06:20:18;13.57;;;8.27;;
68234;SDS011;55052;52.056;5.296;2023-08-24T06:22:45;11.85;;;8.30;;
68234;SDS011;55052;52.056;5.296;2023-08-24T06:25:12;14.75;;;8.95;;
68234;SDS011;55052;52.056;5.296;2023-08-24T06:27:39;14.55;;;8.70;;
68234;SDS011;55052;52.056;5.296;2023-08-24T06:30:06;12.23;;;8.18;;
68234;SDS011;55052;52.056;5.296;2023-08-24T06:32:33;15.25;;;9.40;;
68234;SDS011;55052;52.056;5.296;2023-08-24T06:35:00;12.27;;;9.10;;
68234;SDS011;55052;52.056;5.296;2023-08-24T06:37:27;12.82;;;8.90;;
68234;SDS011;55052;52.056;5.296;2023-08-24T06:39:54;14.00;;;7.80;;
68234;SDS011;55052;52.056;5.296;2023-08-24T06:42:21;15.55;;;7.72;;
68234;SDS011;55052;52.056;5.296;2023-08-24T06:44:48;15.88;;;8.65;;
68234;SDS011;55052;52.056;5.296;2023-08-24T06:47:17;13.48;;;8.40;;
68234;SDS011;55052;52.056;5.296;2023-08-24T06:49:44;13.27;;;8.90;;
68234;SDS011;55052;52.056;5.296;2023-08-24T06:52:11;13.80;;;8.98;;
68234;SDS011;55052;52.056;5.296;2023-08-24T06:54:38;11.48;;;8.55;;
68234;SDS011;55052;52.056;5.296;2023-08-24T06:57:05;13.05;;;8.23;;
68234;SDS011;55052;52.056;5.296;2023-08-24T06:59:31;13.68;;;8.80;;
68234;SDS011;55052;52.056;5.296;2023-08-24T07:01:58;12.68;;;9.30;;
68234;SDS011;55052;52.056;5.296;2023-08-24T07:04:26;14.18;;;8.57;;
68234;SDS011;55052;52.056;5.296;2023-08-24T07:06:54;13.55;;;7.47;;
68234;SDS011;55052;52.056;5.296;2023-08-24T07:09:20;12.52;;;8.25;;
68234;SDS011;55052;52.056;5.296;2023-08-24T07:11:48;13.38;;;8.48;;
68234;SDS011;55052;52.056;5.296;2023-08-24T07:14:15;15.88;;;8.80;;
68234;SDS011;55052;52.056;5.296;2023-08-24T07:16:42;14.38;;;8.55;;
68234;SDS011;55052;52.056;5.296;2023-08-24T07:19:09;12.60;;;8.43;;
68234;SDS011;55052;52.056;5.296;2023-08-24T07:21:36;14.63;;;8.18;;
68234;SDS011;55052;52.056;5.296;2023-08-24T07:24:03;13.43;;;7.80;;
68234;SDS011;55052;52.056;5.296;2023-08-24T07:26:30;12.23;;;7.65;;
68234;SDS011;55052;52.056;5.296;2023-08-24T07:28:58;13.25;;;7.82;;
68234;SDS011;55052;52.056;5.296;2023-08-24T07:31:25;10.82;;;7.88;;
68234;SDS011;55052;52.056;5.296;2023-08-24T07:33:53;12.60;;;7.38;;
68234;SDS011;55052;52.056;5.296;2023-08-24T07:36:19;12.98;;;7.50;;
68234;SDS011;55052;52.056;5.296;2023-08-24T07:38:46;12.43;;;7.45;;
68234;SDS011;55052;52.056;5.296;2023-08-24T07:41:14;12.32;;;7.63;;
68234;SDS011;55052;52.056;5.296;2023-08-24T07:43:40;12.07;;;7.30;;
68234;SDS011;55052;52.056;5.296;2023-08-24T07:46:07;11.77;;;6.85;;
68234;SDS011;55052;52.056;5.296;2023-08-24T07:48:35;11.13;;;7.60;;
68234;SDS011;55052;52.056;5.296;2023-08-24T07:51:02;13.27;;;7.57;;
68234;SDS011;55052;52.056;5.296;2023-08-24T07:53:29;16.10;;;7.18;;
68234;SDS011;55052;52.056;5.296;2023-08-24T07:55:56;11.25;;;7.07;;
68234;SDS011;55052;52.056;5.296;2023-08-24T07:58:24;10.90;;;5.35;;
68234;SDS011;55052;52.056;5.296;2023-08-24T08:00:51;11.40;;;6.57;;
68234;SDS011;55052;52.056;5.296;2023-08-24T08:03:19;9.68;;;5.85;;
68234;SDS011;55052;52.056;5.296;2023-08-24T08:05:46;11.27;;;6.60;;
68234;SDS011;55052;52.056;5.296;2023-08-24T08:08:13;12.00;;;6.70;;
68234;SDS011;55052;52.056;5.296;2023-08-24T08:10:41;14.02;;;6.82;;
68234;SDS011;55052;52.056;5.296;2023-08-24T08:13:08;14.15;;;7.05;;
68234;SDS011;55052;52.056;5.296;2023-08-24T08:15:38;11.00;;;6.57;;
68234;SDS011;55052;52.056;5.296;2023-08-24T08:18:05;13.05;;;6.63;;
68234;SDS011;55052;52.056;5.296;2023-08-24T08:20:33;15.65;;;6.70;;
68234;SDS011;55052;52.056;5.296;2023-08-24T08:22:59;14.13;;;6.18;;
68234;SDS011;55052;52.056;5.296;2023-08-24T08:25:26;9.75;;;5.72;;
68234;SDS011;55052;52.056;5.296;2023-08-24T08:27:54;12.75;;;7.53;;
68234;SDS011;55052;52.056;5.296;2023-08-24T08:30:21;11.82;;;7.20;;
68234;SDS011;55052;52.056;5.296;2023-08-24T08:32:48;11.48;;;7.80;;
68234;SDS011;55052;52.056;5.296;2023-08-24T08:35:18;11.48;;;6.78;;
68234;SDS011;55052;52.056;5.296;2023-08-24T08:37:45;13.77;;;7.25;;
68234;SDS011;55052;52.056;5.296;2023-08-24T08:40:13;12.07;;;7.30;;
68234;SDS011;55052;52.056;5.296;2023-08-24T08:42:39;13.35;;;7.07;;
68234;SDS011;55052;52.056;5.296;2023-08-24T08:45:10;10.80;;;7.43;;
68234;SDS011;55052;52.056;5.296;2023-08-24T08:47:37;12.20;;;7.80;;
68234;SDS011;55052;52.056;5.296;2023-08-24T08:50:05;14.80;;;7.80;;
68234;SDS011;55052;52.056;5.296;2023-08-24T08:52:32;11.68;;;7.90;;
68234;SDS011;55052;52.056;5.296;2023-08-24T08:55:00;11.88;;;7.32;;
68234;SDS011;55052;52.056;5.296;2023-08-24T08:57:27;14.05;;;8.10;;
68234;SDS011;55052;52.056;5.296;2023-08-24T08:59:58;15.18;;;8.75;;
68234;SDS011;55052;52.056;5.296;2023-08-24T09:02:25;18.55;;;9.60;;
68234;SDS011;55052;52.056;5.296;2023-08-24T09:04:52;18.08;;;10.23;;
68234;SDS011;55052;52.056;5.296;2023-08-24T09:07:19;14.77;;;9.75;;
68234;SDS011;55052;52.056;5.296;2023-08-24T09:09:47;14.05;;;9.02;;
68234;SDS011;55052;52.056;5.296;2023-08-24T09:12:13;12.07;;;8.05;;
68234;SDS011;55052;52.056;5.296;2023-08-24T09:14:40;17.38;;;8.00;;
68234;SDS011;55052;52.056;5.296;2023-08-24T09:17:08;15.48;;;9.15;;
68234;SDS011;55052;52.056;5.296;2023-08-24T09:19:34;14.93;;;8.52;;
68234;SDS011;55052;52.056;5.296;2023-08-24T09:22:02;13.57;;;8.68;;
68234;SDS011;55052;52.056;5.296;2023-08-24T09:24:32;13.13;;;8.25;;
68234;SDS011;55052;52.056;5.296;2023-08-24T09:27:00;14.75;;;8.07;;
68234;SDS011;55052;52.056;5.296;2023-08-24T09:29:40;14.02;;;7.32;;
68234;SDS011;55052;52.056;5.296;2023-08-24T09:32:07;15.10;;;7.55;;
68234;SDS011;55052;52.056;5.296;2023-08-24T09:34:36;12.57;;;7.00;;
68234;SDS011;55052;52.056;5.296;2023-08-24T09:37:03;10.82;;;6.70;;
68234;SDS011;55052;52.056;5.296;2023-08-24T09:39:31;13.65;;;7.57;;
68234;SDS011;55052;52.056;5.296;2023-08-24T09:42:00;13.00;;;7.18;;
68234;SDS011;55052;52.056;5.296;2023-08-24T09:44:30;12.20;;;6.72;;
68234;SDS011;55052;52.056;5.296;2023-08-24T09:46:58;11.50;;;6.65;;
68234;SDS011;55052;52.056;5.296;2023-08-24T09:49:25;12.15;;;6.38;;
68234;SDS011;55052;52.056;5.296;2023-08-24T09:51:55;12.52;;;6.40;;
68234;SDS011;55052;52.056;5.296;2023-08-24T09:54:26;9.48;;;5.22;;
68234;SDS011;55052;52.056;5.296;2023-08-24T09:56:54;11.82;;;6.03;;
68234;SDS011;55052;52.056;5.296;2023-08-24T09:59:22;10.45;;;5.43;;
68234;SDS011;55052;52.056;5.296;2023-08-24T10:01:51;8.80;;;5.30;;
68234;SDS011;55052;52.056;5.296;2023-08-24T10:04:22;10.13;;;5.20;;
68234;SDS011;55052;52.056;5.296;2023-08-24T10:07:08;9.90;;;5.15;;
68234;SDS011;55052;52.056;5.296;2023-08-24T10:09:44;10.85;;;4.65;;
68234;SDS011;55052;52.056;5.296;2023-08-24T10:12:16;9.95;;;4.65;;
68234;SDS011;55052;52.056;5.296;2023-08-24T10:14:53;11.15;;;5.07;;
68234;SDS011;55052;52.056;5.296;2023-08-24T10:17:27;9.35;;;5.20;;
68234;SDS011;55052;52.056;5.296;2023-08-24T10:19:54;9.20;;;6.18;;
68234;SDS011;55052;52.056;5.296;2023-08-24T10:22:23;12.57;;;5.30;;
68234;SDS011;55052;52.056;5.296;2023-08-24T10:24:50;7.55;;;4.80;;
68234;SDS011;55052;52.056;5.296;2023-08-24T10:27:19;7.88;;;4.45;;
68234;SDS011;55052;52.056;5.296;2023-08-24T10:29:48;9.45;;;4.80;;
68234;SDS011;55052;52.056;5.296;2023-08-24T10:32:15;8.30;;;4.60;;
68234;SDS011;55052;52.056;5.296;2023-08-24T10:34:42;10.32;;;5.13;;
68234;SDS011;55052;52.056;5.296;2023-08-24T10:37:09;14.27;;;6.13;;
68234;SDS011;55052;52.056;5.296;2023-08-24T10:39:38;12.73;;;7.57;;
68234;SDS011;55052;52.056;5.296;2023-08-24T10:42:12;14.63;;;7.90;;
68234;SDS011;55052;52.056;5.296;2023-08-24T10:44:40;13.88;;;8.25;;
68234;SDS011;55052;52.056;5.296;2023-08-24T10:47:11;14.25;;;8.85;;
68234;SDS011;55052;52.056;5.296;2023-08-24T10:49:43;14.05;;;8.98;;
68234;SDS011;55052;52.056;5.296;2023-08-24T10:52:43;16.40;;;9.10;;
68234;SDS011;55052;52.056;5.296;2023-08-24T10:55:26;15.15;;;11.20;;
68234;SDS011;55052;52.056;5.296;2023-08-24T10:57:57;18.45;;;11.43;;
68234;SDS011;55052;52.056;5.296;2023-08-24T11:00:29;17.48;;;11.95;;
68234;SDS011;55052;52.056;5.296;2023-08-24T11:02:56;17.45;;;11.57;;
68234;SDS011;55052;52.056;5.296;2023-08-24T11:05:28;19.17;;;10.82;;
68234;SDS011;55052;52.056;5.296;2023-08-24T11:10:30;14.55;;;10.65;;
68234;SDS011;55052;52.056;5.296;2023-08-24T11:13:05;16.00;;;10.02;;
68234;SDS011;55052;52.056;5.296;2023-08-24T11:15:34;20.17;;;10.52;;
68234;SDS011;55052;52.056;5.296;2023-08-24T11:18:25;15.77;;;10.25;;
68234;SDS011;55052;52.056;5.296;2023-08-24T11:20:54;15.85;;;9.77;;
68234;SDS011;55052;52.056;5.296;2023-08-24T11:23:25;16.15;;;10.30;;
68234;SDS011;55052;52.056;5.296;2023-08-24T11:25:53;14.90;;;10.73;;
68234;SDS011;55052;52.056;5.296;2023-08-24T11:28:23;15.73;;;10.05;;
68234;SDS011;55052;52.056;5.296;2023-08-24T11:30:52;17.80;;;9.55;;
68234;SDS011;55052;52.056;5.296;2023-08-24T11:33:29;15.90;;;9.68;;
68234;SDS011;55052;52.056;5.296;2023-08-24T11:35:57;13.68;;;9.25;;
68234;SDS011;55052;52.056;5.296;2023-08-24T11:38:24;15.05;;;10.15;;
68234;SDS011;55052;52.056;5.296;2023-08-24T11:40:51;12.90;;;8.85;;
68234;SDS011;55052;52.056;5.296;2023-08-24T11:43:24;14.77;;;9.13;;
68234;SDS011;55052;52.056;5.296;2023-08-24T11:45:55;15.77;;;9.48;;
68234;SDS011;55052;52.056;5.296;2023-08-24T11:48:25;15.82;;;9.80;;
68234;SDS011;55052;52.056;5.296;2023-08-24T11:50:57;14.55;;;10.65;;
68234;SDS011;55052;52.056;5.296;2023-08-24T11:53:25;14.15;;;9.70;;
68234;SDS011;55052;52.056;5.296;2023-08-24T11:55:52;19.48;;;9.30;;
68234;SDS011;55052;52.056;5.296;2023-08-24T11:58:31;20.70;;;11.02;;
68234;SDS011;55052;52.056;5.296;2023-08-24T12:00:58;18.80;;;11.02;;
68234;SDS011;55052;52.056;5.296;2023-08-24T12:03:25;16.30;;;10.75;;
68234;SDS011;55052;52.056;5.296;2023-08-24T12:05:52;16.52;;;11.82;;
68234;SDS011;55052;52.056;5.296;2023-08-24T12:08:19;15.40;;;10.52;;
68234;SDS011;55052;52.056;5.296;2023-08-24T12:10:45;15.90;;;10.23;;
68234;SDS011;55052;52.056;5.296;2023-08-24T12:13:12;18.13;;;11.40;;
68234;SDS011;55052;52.056;5.296;2023-08-24T12:15:39;18.77;;;10.68;;
68234;SDS011;55052;52.056;5.296;2023-08-24T12:18:13;16.42;;;10.02;;
68234;SDS011;55052;52.056;5.296;2023-08-24T12:20:40;18.55;;;10.00;;
68234;SDS011;55052;52.056;5.296;2023-08-24T12:23:09;15.05;;;10.48;;
68234;SDS011;55052;52.056;5.296;2023-08-24T12:25:37;14.53;;;10.60;;
68234;SDS011;55052;52.056;5.296;2023-08-24T12:28:11;16.75;;;10.40;;
68234;SDS011;55052;52.056;5.296;2023-08-24T12:30:43;17.45;;;10.85;;
68234;SDS011;55052;52.056;5.296;2023-08-24T12:33:20;15.85;;;10.88;;
68234;SDS011;55052;52.056;5.296;2023-08-24T12:35:55;17.92;;;10.23;;
68234;SDS011;55052;52.056;5.296;2023-08-24T12:38:23;13.10;;;9.20;;
68234;SDS011;55052;52.056;5.296;2023-08-24T12:40:51;16.00;;;10.83;;
68234;SDS011;55052;52.056;5.296;2023-08-24T12:43:19;15.45;;;10.52;;
68234;SDS011;55052;52.056;5.296;2023-08-24T12:45:46;16.25;;;10.45;;
68234;SDS011;55052;52.056;5.296;2023-08-24T12:48:13;16.45;;;11.88;;
68234;SDS011;55052;52.056;5.296;2023-08-24T12:50:39;14.07;;;9.75;;
68234;SDS011;55052;52.056;5.296;2023-08-24T12:53:06;15.43;;;9.52;;
68234;SDS011;55052;52.056;5.296;2023-08-24T12:55:35;16.80;;;10.48;;
68234;SDS011;55052;52.056;5.296;2023-08-24T12:58:02;17.37;;;11.30;;
68234;SDS011;55052;52.056;5.296;2023-08-24T13:00:30;20.20;;;10.48;;
68234;SDS011;55052;52.056;5.296;2023-08-24T13:02:57;14.20;;;9.75;;
68234;SDS011;55052;52.056;5.296;2023-08-24T13:05:24;16.70;;;11.80;;
68234;SDS011;55052;52.056;5.296;2023-08-24T13:07:50;21.50;;;11.73;;
68234;SDS011;55052;52.056;5.296;2023-08-24T13:10:18;16.92;;;11.70;;
68234;SDS011;55052;52.056;5.296;2023-08-24T13:12:45;16.52;;;11.82;;
68234;SDS011;55052;52.056;5.296;2023-08-24T13:15:12;16.88;;;11.55;;
68234;SDS011;55052;52.056;5.296;2023-08-24T13:17:38;19.15;;;12.30;;
68234;SDS011;55052;52.056;5.296;2023-08-24T13:20:06;18.85;;;10.65;;
68234;SDS011;55052;52.056;5.296;2023-08-24T13:22:34;17.42;;;12.32;;
68234;SDS011;55052;52.056;5.296;2023-08-24T13:25:00;16.52;;;10.02;;
68234;SDS011;55052;52.056;5.296;2023-08-24T13:27:27;15.30;;;11.80;;
68234;SDS011;55052;52.056;5.296;2023-08-24T13:29:55;19.55;;;14.85;;
68234;SDS011;55052;52.056;5.296;2023-08-24T13:32:25;19.85;;;13.23;;
68234;SDS011;55052;52.056;5.296;2023-08-24T13:34:52;20.88;;;13.00;;
68234;SDS011;55052;52.056;5.296;2023-08-24T13:37:19;21.23;;;14.48;;
68234;SDS011;55052;52.056;5.296;2023-08-24T13:39:46;21.40;;;14.73;;
68234;SDS011;55052;52.056;5.296;2023-08-24T13:42:12;17.98;;;14.07;;
68234;SDS011;55052;52.056;5.296;2023-08-24T13:44:39;20.92;;;14.90;;
68234;SDS011;55052;52.056;5.296;2023-08-24T13:47:08;23.38;;;15.65;;
68234;SDS011;55052;52.056;5.296;2023-08-24T13:49:34;20.48;;;16.30;;
68234;SDS011;55052;52.056;5.296;2023-08-24T13:52:06;17.17;;;12.90;;
68234;SDS011;55052;52.056;5.296;2023-08-24T13:54:34;19.25;;;15.18;;
68234;SDS011;55052;52.056;5.296;2023-08-24T13:57:01;23.65;;;15.15;;
68234;SDS011;55052;52.056;5.296;2023-08-24T13:59:28;18.50;;;16.02;;
68234;SDS011;55052;52.056;5.296;2023-08-24T14:01:55;23.60;;;16.63;;
68234;SDS011;55052;52.056;5.296;2023-08-24T14:04:22;23.35;;;16.95;;
68234;SDS011;55052;52.056;5.296;2023-08-24T14:06:49;23.10;;;17.65;;
68234;SDS011;55052;52.056;5.296;2023-08-24T14:09:16;24.52;;;17.08;;
68234;SDS011;55052;52.056;5.296;2023-08-24T14:11:43;22.67;;;16.30;;
68234;SDS011;55052;52.056;5.296;2023-08-24T14:14:09;23.38;;;15.98;;
68234;SDS011;55052;52.056;5.296;2023-08-24T14:16:36;22.75;;;15.27;;
68234;SDS011;55052;52.056;5.296;2023-08-24T14:19:03;21.40;;;14.38;;
68234;SDS011;55052;52.056;5.296;2023-08-24T14:21:31;19.63;;;14.70;;
68234;SDS011;55052;52.056;5.296;2023-08-24T14:24:01;21.08;;;13.82;;
68234;SDS011;55052;52.056;5.296;2023-08-24T14:26:27;19.27;;;13.82;;
68234;SDS011;55052;52.056;5.296;2023-08-24T14:28:55;18.38;;;13.63;;
68234;SDS011;55052;52.056;5.296;2023-08-24T14:31:24;19.63;;;12.63;;
68234;SDS011;55052;52.056;5.296;2023-08-24T14:33:53;16.87;;;13.57;;
68234;SDS011;55052;52.056;5.296;2023-08-24T14:36:20;18.83;;;14.20;;
68234;SDS011;55052;52.056;5.296;2023-08-24T14:38:47;17.50;;;13.85;;
68234;SDS011;55052;52.056;5.296;2023-08-24T14:41:15;21.52;;;14.05;;
68234;SDS011;55052;52.056;5.296;2023-08-24T14:43:42;20.60;;;13.80;;
68234;SDS011;55052;52.056;5.296;2023-08-24T14:46:09;18.55;;;14.05;;
68234;SDS011;55052;52.056;5.296;2023-08-24T14:48:36;22.40;;;14.35;;
68234;SDS011;55052;52.056;5.296;2023-08-24T14:51:03;20.30;;;14.75;;